createdAt,value
2024-01-06T00:00:27.466Z,73.72
2024-01-06T00:02:55.074Z,73.29
2024-01-06T00:05:22.306Z,73.49
2024-01-06T00:07:49.449Z,73.95
2024-01-06T00:10:17.922Z,73.57
2024-01-06T00:12:45.980Z,73.84
2024-01-06T00:15:13.915Z,73.84
2024-01-06T00:17:41.273Z,73.37
2024-01-06T00:20:09.425Z,74.06
2024-01-06T00:22:36.971Z,73.68
2024-01-06T00:25:04.532Z,73.98
2024-01-06T00:27:33.021Z,74.13
2024-01-06T00:30:00.240Z,74.66
2024-01-06T00:32:28.498Z,74.52
2024-01-06T00:34:55.841Z,74.92
2024-01-06T00:37:23.285Z,74.88
2024-01-06T00:39:51.240Z,74.99
2024-01-06T00:42:18.383Z,75.12
2024-01-06T00:44:46.788Z,75.29
2024-01-06T00:47:14.067Z,74.83
2024-01-06T00:49:41.440Z,74.54
2024-01-06T00:52:09.763Z,74.49
2024-01-06T00:54:36.941Z,74.19
2024-01-06T00:57:04.779Z,74.56
2024-01-06T00:59:32.020Z,74.11
2024-01-06T01:01:59.383Z,74.07
2024-01-06T01:04:27.345Z,73.79
2024-01-06T01:06:54.718Z,73.84
2024-01-06T01:09:21.877Z,73.76
2024-01-06T01:11:49.079Z,73.62
2024-01-06T01:14:16.183Z,73.33
2024-01-06T01:16:43.440Z,73.38
2024-01-06T01:19:10.771Z,73.37
2024-01-06T01:21:38.207Z,73.40
2024-01-06T01:24:05.965Z,73.49
2024-01-06T01:26:33.219Z,73.56
2024-01-06T01:29:00.663Z,73.20
2024-01-06T01:31:28.203Z,73.12
2024-01-06T01:33:55.511Z,73.16
2024-01-06T01:36:23.078Z,73.23
2024-01-06T01:38:50.370Z,73.33
2024-01-06T01:41:18.130Z,73.82
2024-01-06T01:43:47.236Z,73.59
2024-01-06T01:46:15.002Z,73.46
2024-01-06T01:48:43.305Z,73.67
2024-01-06T01:51:10.939Z,73.87
2024-01-06T01:53:38.733Z,73.60
2024-01-06T01:56:06.215Z,73.89
2024-01-06T01:58:33.455Z,74.01
2024-01-06T02:01:00.952Z,74.58
2024-01-06T02:03:31.903Z,74.81
2024-01-06T02:05:59.472Z,74.52
2024-01-06T02:08:26.695Z,74.76
2024-01-06T02:10:56.200Z,74.42
2024-01-06T02:13:23.828Z,74.62
2024-01-06T02:15:51.396Z,74.38
2024-01-06T02:18:19.733Z,74.33
2024-01-06T02:20:49.489Z,74.69
2024-01-06T02:23:16.486Z,75.08
2024-01-06T02:25:43.688Z,75.00
2024-01-06T02:28:10.947Z,75.36
2024-01-06T02:30:38.262Z,75.63
2024-01-06T02:33:05.774Z,74.98
2024-01-06T02:35:32.864Z,75.47
2024-01-06T02:38:00.153Z,75.08
2024-01-06T02:40:27.417Z,74.88
2024-01-06T02:42:54.967Z,75.16
2024-01-06T02:45:23.683Z,74.72
2024-01-06T02:47:51.048Z,74.98
2024-01-06T02:50:18.256Z,75.15
2024-01-06T02:52:46.618Z,75.69
2024-01-06T02:55:15.067Z,75.32
2024-01-06T02:57:43.203Z,75.59
2024-01-06T03:00:11.134Z,76.28
2024-01-06T03:02:38.915Z,76.53
2024-01-06T03:05:06.666Z,76.66
2024-01-06T03:07:34.283Z,76.21
2024-01-06T03:10:01.520Z,76.40
2024-01-06T03:12:32.136Z,76.14
2024-01-06T03:14:59.758Z,76.10
2024-01-06T03:17:26.899Z,76.25
2024-01-06T03:19:54.640Z,75.73
2024-01-06T03:22:21.818Z,75.98
2024-01-06T03:24:49.038Z,76.11
2024-01-06T03:27:16.711Z,76.11
2024-01-06T03:29:44.093Z,76.10
2024-01-06T03:32:11.364Z,75.98
2024-01-06T03:34:38.635Z,76.07
2024-01-06T03:37:17.258Z,75.60
2024-01-06T03:39:48.412Z,75.47
2024-01-06T03:42:20.087Z,75.13
2024-01-06T03:44:52.326Z,75.39
2024-01-06T03:47:23.376Z,75.18
2024-01-06T03:49:56.019Z,74.91
2024-01-06T03:52:23.842Z,75.02
2024-01-06T03:54:51.249Z,75.14
2024-01-06T03:57:18.824Z,75.33
2024-01-06T03:59:46.318Z,75.30
2024-01-06T04:02:15.264Z,75.37
2024-01-06T04:04:42.791Z,75.88
2024-01-06T04:07:10.193Z,76.03
2024-01-06T04:09:38.189Z,75.86
2024-01-06T04:12:05.812Z,75.92
2024-01-06T04:14:33.666Z,75.98
2024-01-06T04:17:01.228Z,76.07
2024-01-06T04:19:28.790Z,76.28
2024-01-06T04:21:56.666Z,76.41
2024-01-06T04:24:24.073Z,76.34
2024-01-06T04:26:51.638Z,76.37
2024-01-06T04:29:18.957Z,75.87
2024-01-06T04:31:46.812Z,75.81
2024-01-06T04:34:14.496Z,76.16
2024-01-06T04:36:41.882Z,75.88
2024-01-06T04:39:10.969Z,75.91
2024-01-06T04:41:38.339Z,75.64
2024-01-06T04:44:05.779Z,75.77
2024-01-06T04:46:33.085Z,75.76
2024-01-06T04:49:01.004Z,75.72
2024-01-06T04:51:29.703Z,75.64
2024-01-06T04:54:00.298Z,75.84
2024-01-06T04:56:28.227Z,75.52
2024-01-06T04:58:55.904Z,75.61
2024-01-06T05:01:23.517Z,75.70
2024-01-06T05:03:52.431Z,75.79
2024-01-06T05:06:20.346Z,76.10
2024-01-06T05:09:03.865Z,76.03
2024-01-06T05:11:33.727Z,76.27
2024-01-06T05:14:02.284Z,76.38
2024-01-06T05:16:29.589Z,76.64
2024-01-06T05:18:56.851Z,76.93
2024-01-06T05:21:23.954Z,76.91
2024-01-06T05:23:51.124Z,77.42
2024-01-06T05:26:18.719Z,77.56
2024-01-06T05:28:46.245Z,77.75
2024-01-06T05:31:13.630Z,77.85
2024-01-06T05:33:41.036Z,78.13
2024-01-06T05:36:08.522Z,78.29
2024-01-06T05:38:38.172Z,78.60
2024-01-06T05:41:05.405Z,78.32
2024-01-06T05:43:32.576Z,78.60
2024-01-06T05:45:59.834Z,78.89
2024-01-06T05:48:27.193Z,78.90
2024-01-06T05:50:54.644Z,78.83
2024-01-06T05:53:21.996Z,78.70
2024-01-06T05:55:49.476Z,78.29
2024-01-06T05:58:16.834Z,78.43
2024-01-06T06:00:44.227Z,78.09
2024-01-06T06:03:11.634Z,77.76
2024-01-06T06:05:38.813Z,77.82
2024-01-06T06:08:06.119Z,77.74
2024-01-06T06:10:42.705Z,77.52
2024-01-06T06:13:12.414Z,77.37
2024-01-06T06:15:39.559Z,76.92
2024-01-06T06:18:07.984Z,77.05
2024-01-06T06:20:35.441Z,77.04
2024-01-06T06:23:02.539Z,76.92
2024-01-06T06:25:29.804Z,76.60
2024-01-06T06:27:56.842Z,76.88
2024-01-06T06:30:24.189Z,76.71
2024-01-06T06:32:51.491Z,77.20
2024-01-06T06:35:18.792Z,77.01
2024-01-06T06:37:46.088Z,77.28
2024-01-06T06:40:13.453Z,77.15
2024-01-06T06:42:40.839Z,77.44
2024-01-06T06:45:08.561Z,77.88
2024-01-06T06:47:35.792Z,77.53
2024-01-06T06:50:03.671Z,77.30
2024-01-06T06:52:31.577Z,77.32
2024-01-06T06:54:59.351Z,77.55
2024-01-06T06:57:26.852Z,77.43
2024-01-06T06:59:53.831Z,77.56
2024-01-06T07:02:21.358Z,77.72
2024-01-06T07:04:48.433Z,77.71
2024-01-06T07:07:15.486Z,77.39
2024-01-06T07:09:42.982Z,77.17
2024-01-06T07:12:10.121Z,76.91
2024-01-06T07:14:38.581Z,76.80
2024-01-06T07:17:05.811Z,76.35
2024-01-06T07:19:34.096Z,76.45
2024-01-06T07:22:02.627Z,75.38
2024-01-06T07:24:31.760Z,75.41
2024-01-06T07:26:59.285Z,75.12
2024-01-06T07:29:26.451Z,74.53
2024-01-06T07:31:53.808Z,74.21
2024-01-06T07:34:21.273Z,73.72
2024-01-06T07:36:48.495Z,74.24
2024-01-06T07:39:15.619Z,74.02
2024-01-06T07:41:43.406Z,73.62
2024-01-06T07:44:10.584Z,73.17
2024-01-06T07:46:38.332Z,73.17
2024-01-06T07:49:06.160Z,73.04
2024-01-06T07:51:36.081Z,72.92
2024-01-06T07:54:03.619Z,72.67
2024-01-06T07:56:30.745Z,72.64
2024-01-06T07:58:57.997Z,72.83
2024-01-06T08:01:25.391Z,72.70
2024-01-06T08:03:52.615Z,72.02
2024-01-06T08:06:20.358Z,71.96
2024-01-06T08:08:47.726Z,71.61
2024-01-06T08:11:14.870Z,71.80
2024-01-06T08:13:42.367Z,71.23
2024-01-06T08:16:09.780Z,71.48
2024-01-06T08:18:37.076Z,71.05
2024-01-06T08:21:04.596Z,70.87
2024-01-06T08:23:31.812Z,70.75
2024-01-06T08:25:59.471Z,70.81
2024-01-06T08:28:26.668Z,70.91
2024-01-06T08:30:54.778Z,70.79
2024-01-06T08:33:22.251Z,70.74
2024-01-06T08:35:49.796Z,70.61
2024-01-06T08:38:19.903Z,70.47
2024-01-06T08:40:49.412Z,70.52
2024-01-06T08:43:16.550Z,70.67
2024-01-06T08:45:43.882Z,70.38
2024-01-06T08:48:12.806Z,70.57
2024-01-06T08:50:40.384Z,70.24
2024-01-06T08:53:07.485Z,70.31
2024-01-06T08:55:36.909Z,70.46
2024-01-06T08:58:04.288Z,69.91
2024-01-06T09:00:31.478Z,69.78
2024-01-06T09:02:59.041Z,70.07
2024-01-06T09:05:26.236Z,69.67
2024-01-06T09:07:55.241Z,70.01
2024-01-06T09:10:23.129Z,70.38
2024-01-06T09:12:50.234Z,70.27
2024-01-06T09:15:18.444Z,69.91
2024-01-06T09:17:45.702Z,69.82
2024-01-06T09:20:12.929Z,69.70
2024-01-06T09:22:40.139Z,69.46
2024-01-06T09:25:07.640Z,69.94
2024-01-06T09:27:35.305Z,69.67
2024-01-06T09:30:02.764Z,69.92
2024-01-06T09:32:32.230Z,70.22
2024-01-06T09:34:59.614Z,69.98
2024-01-06T09:37:26.829Z,69.69
2024-01-06T09:39:54.214Z,69.75
2024-01-06T09:42:22.137Z,69.67
2024-01-06T09:44:49.272Z,69.63
2024-01-06T09:47:19.897Z,70.03
2024-01-06T09:49:50.871Z,69.75
2024-01-06T09:52:23.275Z,69.55
2024-01-06T09:54:54.501Z,70.41
2024-01-06T09:57:22.696Z,70.17
2024-01-06T09:59:49.984Z,69.88
2024-01-06T10:02:18.222Z,69.67
2024-01-06T10:04:45.944Z,70.11
2024-01-06T10:07:15.075Z,70.07
2024-01-06T10:09:43.946Z,69.67
2024-01-06T10:12:11.287Z,69.74
2024-01-06T10:14:39.973Z,69.42
2024-01-06T10:17:09.176Z,70.01
2024-01-06T10:19:38.310Z,69.66
2024-01-06T10:22:05.725Z,69.47
2024-01-06T10:24:33.146Z,69.81
2024-01-06T10:27:00.606Z,69.87
2024-01-06T10:29:28.856Z,69.41
2024-01-06T10:31:56.680Z,69.23
2024-01-06T10:34:25.403Z,69.39
2024-01-06T10:36:56.031Z,69.73
2024-01-06T10:39:23.519Z,69.75
2024-01-06T10:41:53.463Z,70.08
2024-01-06T10:44:22.376Z,70.10
2024-01-06T10:46:51.105Z,70.25
2024-01-06T10:49:22.747Z,70.42
2024-01-06T10:51:51.304Z,70.72
2024-01-06T10:54:20.214Z,71.29
2024-01-06T10:56:48.395Z,71.00
2024-01-06T10:59:16.250Z,71.10
2024-01-06T11:01:45.589Z,71.17
2024-01-06T11:04:15.280Z,71.01
2024-01-06T11:06:43.522Z,71.19
2024-01-06T11:09:19.911Z,71.18
2024-01-06T11:11:47.495Z,71.59
2024-01-06T11:14:21.862Z,71.40
2024-01-06T11:16:49.719Z,72.05
2024-01-06T11:19:46.854Z,72.61
2024-01-06T11:22:26.174Z,72.56
2024-01-06T11:24:55.227Z,72.84
2024-01-06T11:27:29.784Z,72.73
2024-01-06T11:29:59.250Z,73.17
2024-01-06T11:32:36.630Z,73.71
2024-01-06T11:35:15.547Z,73.84
2024-01-06T11:37:45.256Z,74.25
2024-01-06T11:40:23.356Z,74.35
2024-01-06T11:43:03.851Z,75.27
2024-01-06T11:45:31.369Z,75.41
2024-01-06T11:48:01.697Z,75.62
2024-01-06T11:50:29.940Z,75.58
2024-01-06T11:52:57.415Z,75.78
2024-01-06T11:55:25.553Z,75.97
2024-01-06T11:57:52.786Z,75.73
2024-01-06T12:00:20.100Z,75.90
2024-01-06T12:02:47.559Z,75.88
2024-01-06T12:05:19.221Z,75.94
2024-01-06T12:07:56.175Z,76.24
2024-01-06T12:10:24.571Z,75.97
2024-01-06T12:13:00.322Z,76.39
2024-01-06T12:15:29.133Z,76.34
2024-01-06T12:17:57.909Z,76.73
2024-01-06T12:20:27.248Z,76.77
2024-01-06T12:22:55.195Z,77.05
2024-01-06T12:25:23.757Z,77.58
2024-01-06T12:27:52.034Z,78.11
2024-01-06T12:30:21.603Z,78.38
2024-01-06T12:32:50.669Z,78.40
2024-01-06T12:35:18.260Z,78.46
2024-01-06T12:37:48.339Z,78.48
2024-01-06T12:40:18.776Z,78.30
2024-01-06T12:42:47.585Z,78.45
2024-01-06T12:45:17.060Z,78.47
2024-01-06T12:47:44.726Z,78.88
2024-01-06T12:50:12.281Z,78.60
2024-01-06T12:52:40.721Z,78.68
2024-01-06T12:55:09.514Z,78.90
2024-01-06T12:57:37.553Z,79.10
2024-01-06T13:00:07.558Z,79.15
2024-01-06T13:02:34.892Z,78.91
2024-01-06T13:05:02.626Z,79.17
2024-01-06T13:07:30.872Z,79.05
2024-01-06T13:09:58.571Z,78.90
2024-01-06T13:12:26.136Z,78.96
2024-01-06T13:14:53.462Z,79.48
2024-01-06T13:17:20.689Z,79.78
2024-01-06T13:19:48.014Z,79.90
2024-01-06T13:22:16.385Z,80.38
2024-01-06T13:24:43.631Z,79.96
2024-01-06T13:27:11.354Z,79.85
2024-01-06T13:29:39.639Z,80.04
2024-01-06T13:32:07.232Z,79.86
2024-01-06T13:34:34.626Z,79.69
2024-01-06T13:37:02.133Z,79.77
2024-01-06T13:39:29.465Z,79.76
2024-01-06T13:41:56.844Z,79.79
2024-01-06T13:44:24.363Z,79.89
2024-01-06T13:46:52.398Z,80.05
2024-01-06T13:49:20.194Z,80.25
2024-01-06T13:51:47.861Z,80.37
2024-01-06T13:54:17.991Z,80.87
2024-01-06T13:56:47.726Z,81.23
2024-01-06T13:59:14.883Z,81.61
2024-01-06T14:01:42.526Z,81.44
2024-01-06T14:04:10.385Z,81.53
2024-01-06T14:06:37.494Z,81.30
2024-01-06T14:09:07.037Z,81.04
2024-01-06T14:11:35.037Z,81.10
2024-01-06T14:14:02.167Z,81.16
2024-01-06T14:16:29.492Z,81.32
2024-01-06T14:18:56.929Z,81.36
2024-01-06T14:21:25.047Z,81.36
2024-01-06T14:23:52.342Z,81.13
2024-01-06T14:26:22.574Z,81.46
2024-01-06T14:28:50.195Z,81.60
2024-01-06T14:31:17.768Z,81.63
2024-01-06T14:33:45.297Z,81.49
2024-01-06T14:36:13.019Z,81.51
2024-01-06T14:38:40.407Z,81.71
2024-01-06T14:41:07.662Z,81.34
2024-01-06T14:43:34.840Z,81.65
2024-01-06T14:46:02.474Z,81.91
2024-01-06T14:48:29.800Z,81.88
2024-01-06T14:50:57.070Z,81.72
2024-01-06T14:53:24.538Z,81.67
2024-01-06T14:55:51.759Z,81.64
2024-01-06T14:58:18.978Z,81.28
2024-01-06T15:00:46.300Z,81.30
2024-01-06T15:03:13.653Z,80.97
2024-01-06T15:05:40.850Z,81.61
2024-01-06T15:08:08.073Z,81.34
2024-01-06T15:10:35.486Z,81.23
2024-01-06T15:13:05.055Z,81.28
2024-01-06T15:15:32.392Z,81.49
2024-01-06T15:18:00.118Z,81.35
2024-01-06T15:20:28.823Z,81.24
2024-01-06T15:22:55.996Z,81.03
2024-01-06T15:25:23.293Z,81.17
2024-01-06T15:27:50.470Z,81.32
2024-01-06T15:30:19.423Z,81.71
2024-01-06T15:32:47.943Z,81.69
2024-01-06T15:35:15.120Z,81.47
2024-01-06T15:37:42.271Z,81.59
2024-01-06T15:40:10.890Z,81.40
2024-01-06T15:42:38.164Z,81.25
2024-01-06T15:45:06.657Z,81.44
2024-01-06T15:47:34.691Z,81.33
2024-01-06T15:50:02.318Z,81.14
2024-01-06T15:52:31.104Z,81.26
2024-01-06T15:54:58.898Z,81.11
2024-01-06T15:57:29.419Z,80.90
2024-01-06T15:59:56.726Z,81.17
2024-01-06T16:02:24.061Z,81.46
2024-01-06T16:04:51.572Z,81.51
2024-01-06T16:07:19.723Z,81.35
2024-01-06T16:09:47.444Z,81.58
2024-01-06T16:12:17.304Z,81.21
2024-01-06T16:14:44.483Z,81.46
2024-01-06T16:17:11.950Z,81.11
2024-01-06T16:19:40.519Z,81.14
2024-01-06T16:22:15.092Z,81.36
2024-01-06T16:24:45.179Z,81.23
2024-01-06T16:27:12.585Z,81.46
2024-01-06T16:29:40.357Z,81.21
2024-01-06T16:32:08.653Z,81.21
2024-01-06T16:34:36.779Z,81.11
2024-01-06T16:37:04.701Z,80.75
2024-01-06T16:39:33.144Z,80.58
2024-01-06T16:42:01.204Z,80.78
2024-01-06T16:44:31.627Z,80.92
2024-01-06T16:47:00.644Z,80.98
2024-01-06T16:49:32.875Z,81.20
2024-01-06T16:52:00.509Z,80.71
2024-01-06T16:54:28.498Z,80.46
2024-01-06T16:56:56.122Z,80.40
2024-01-06T16:59:23.324Z,80.67
2024-01-06T17:01:50.788Z,81.19
2024-01-06T17:04:18.486Z,81.36
2024-01-06T17:06:47.630Z,81.46
2024-01-06T17:09:14.923Z,81.64
2024-01-06T17:11:51.416Z,81.90
2024-01-06T17:14:18.785Z,81.64
2024-01-06T17:16:49.674Z,81.41
2024-01-06T17:19:17.278Z,81.57
2024-01-06T17:21:44.966Z,81.95
2024-01-06T17:24:12.390Z,82.00
2024-01-06T17:26:45.252Z,82.16
2024-01-06T17:29:13.776Z,81.96
2024-01-06T17:31:41.299Z,82.08
2024-01-06T17:34:09.853Z,82.24
2024-01-06T17:36:37.909Z,81.89
2024-01-06T17:39:05.333Z,81.88
2024-01-06T17:41:37.824Z,81.89
2024-01-06T17:44:10.903Z,81.89
2024-01-06T17:46:38.167Z,81.99
2024-01-06T17:49:07.903Z,82.02
2024-01-06T17:51:36.106Z,82.33
2024-01-06T17:54:03.264Z,82.22
2024-01-06T17:56:30.412Z,82.53
2024-01-06T17:59:02.576Z,82.82
2024-01-06T18:01:30.243Z,82.94
2024-01-06T18:03:58.993Z,83.06
2024-01-06T18:06:26.726Z,83.44
2024-01-06T18:08:54.105Z,83.51
2024-01-06T18:11:21.305Z,83.58
2024-01-06T18:13:48.509Z,83.58
2024-01-06T18:16:16.156Z,84.06
2024-01-06T18:18:43.380Z,83.84
2024-01-06T18:21:11.372Z,84.08
2024-01-06T18:23:38.502Z,84.01
2024-01-06T18:26:05.617Z,83.58
2024-01-06T18:28:33.692Z,83.15
2024-01-06T18:31:01.035Z,82.95
2024-01-06T18:33:28.725Z,82.75
2024-01-06T18:35:56.122Z,82.80
2024-01-06T18:38:23.246Z,82.79
2024-01-06T18:40:51.770Z,82.71
2024-01-06T18:43:18.764Z,82.91
2024-01-06T18:45:46.101Z,82.61
2024-01-06T18:48:15.351Z,82.92
2024-01-06T18:50:44.052Z,82.98
2024-01-06T18:53:13.754Z,82.70
2024-01-06T18:55:41.377Z,82.99
2024-01-06T18:58:08.615Z,82.94
2024-01-06T19:00:35.857Z,82.93
2024-01-06T19:03:03.072Z,83.05
2024-01-06T19:05:32.815Z,83.16
2024-01-06T19:07:59.909Z,83.55
2024-01-06T19:10:26.998Z,83.32
2024-01-06T19:12:54.531Z,83.23
2024-01-06T19:15:21.858Z,83.16
2024-01-06T19:17:49.634Z,83.10
2024-01-06T19:20:17.634Z,82.92
2024-01-06T19:22:57.650Z,83.24
2024-01-06T19:25:32.140Z,82.99
2024-01-06T19:27:59.677Z,82.79
2024-01-06T19:30:27.206Z,82.85
2024-01-06T19:32:54.470Z,82.69
2024-01-06T19:35:21.721Z,82.58
2024-01-06T19:37:49.660Z,82.57
2024-01-06T19:40:19.634Z,82.55
2024-01-06T19:42:52.980Z,82.61
2024-01-06T19:45:20.917Z,82.77
2024-01-06T19:47:48.096Z,82.58
2024-01-06T19:50:15.250Z,82.51
2024-01-06T19:52:43.421Z,82.00
2024-01-06T19:55:11.823Z,81.79
2024-01-06T19:57:38.958Z,81.42
2024-01-06T20:00:08.416Z,81.47
2024-01-06T20:02:38.759Z,81.62
2024-01-06T20:05:08.219Z,81.38
2024-01-06T20:07:36.072Z,81.84
2024-01-06T20:10:03.882Z,81.67
2024-01-06T20:12:32.725Z,81.83
2024-01-06T20:15:00.147Z,82.22
2024-01-06T20:17:27.671Z,82.01
2024-01-06T20:19:55.647Z,82.19
2024-01-06T20:22:23.394Z,82.44
2024-01-06T20:24:50.784Z,82.51
2024-01-06T20:27:18.505Z,82.44
2024-01-06T20:29:46.388Z,82.50
2024-01-06T20:32:13.988Z,82.48
2024-01-06T20:34:41.659Z,82.41
2024-01-06T20:37:08.863Z,82.28
2024-01-06T20:39:36.172Z,82.35
2024-01-06T20:42:04.043Z,82.26
2024-01-06T20:44:32.029Z,82.20
2024-01-06T20:47:00.069Z,82.46
2024-01-06T20:49:29.680Z,82.65
2024-01-06T20:51:57.990Z,82.69
2024-01-06T20:54:25.660Z,82.54
2024-01-06T20:56:55.928Z,82.53
2024-01-06T20:59:23.251Z,82.48
2024-01-06T21:01:50.336Z,81.87
2024-01-06T21:04:18.535Z,81.71
2024-01-06T21:06:45.745Z,81.33
2024-01-06T21:09:12.887Z,81.08
2024-01-06T21:11:42.213Z,80.99
2024-01-06T21:14:09.718Z,80.31
2024-01-06T21:16:41.202Z,80.29
2024-01-06T21:19:08.670Z,80.53
2024-01-06T21:21:35.854Z,80.08
2024-01-06T21:24:03.043Z,80.20
2024-01-06T21:26:32.491Z,79.93
2024-01-06T21:29:00.763Z,79.46
2024-01-06T21:31:28.928Z,79.68
2024-01-06T21:33:56.504Z,79.57
2024-01-06T21:36:23.756Z,79.26
2024-01-06T21:38:51.231Z,79.24
2024-01-06T21:41:18.773Z,79.09
2024-01-06T21:43:49.000Z,78.88
2024-01-06T21:46:16.322Z,78.40
2024-01-06T21:48:43.754Z,78.26
2024-01-06T21:51:11.007Z,78.04
2024-01-06T21:53:38.566Z,77.81
2024-01-06T21:56:05.868Z,78.19
2024-01-06T21:58:33.009Z,77.87
2024-01-06T22:01:00.223Z,78.14
2024-01-06T22:03:27.589Z,78.50
2024-01-06T22:05:55.905Z,78.21
2024-01-06T22:08:23.241Z,78.18
2024-01-06T22:10:50.338Z,78.08
2024-01-06T22:13:17.557Z,77.96
2024-01-06T22:15:44.847Z,77.76
2024-01-06T22:18:12.453Z,78.14
2024-01-06T22:20:39.576Z,77.83
2024-01-06T22:23:07.004Z,78.02
2024-01-06T22:25:34.365Z,78.04
2024-01-06T22:28:02.729Z,77.94
2024-01-06T22:30:30.365Z,77.91
2024-01-06T22:32:57.737Z,77.98
2024-01-06T22:35:24.822Z,77.90
2024-01-06T22:37:52.129Z,78.06
2024-01-06T22:40:21.904Z,77.64
2024-01-06T22:42:50.360Z,77.77
2024-01-06T22:45:17.481Z,77.62
2024-01-06T22:47:44.626Z,77.50
2024-01-06T22:50:12.105Z,76.97
2024-01-06T22:52:39.232Z,76.66
2024-01-06T22:55:08.824Z,77.14
2024-01-06T22:57:36.219Z,77.03
2024-01-06T23:00:12.883Z,76.87
2024-01-06T23:02:40.416Z,76.86
2024-01-06T23:05:10.251Z,77.09
2024-01-06T23:07:37.416Z,77.07
2024-01-06T23:10:04.896Z,77.32
2024-01-06T23:12:32.177Z,77.18
2024-01-06T23:14:59.440Z,77.35
2024-01-06T23:17:26.905Z,77.72
2024-01-06T23:19:54.184Z,78.17
2024-01-06T23:22:21.315Z,78.25
2024-01-06T23:24:48.526Z,78.17
2024-01-06T23:27:16.675Z,78.68
2024-01-06T23:29:44.142Z,78.59
2024-01-06T23:32:11.214Z,78.54
2024-01-06T23:34:42.696Z,78.36
2024-01-06T23:37:11.229Z,78.29
2024-01-06T23:39:38.702Z,77.91
2024-01-06T23:42:06.490Z,77.60
2024-01-06T23:44:33.818Z,77.59
2024-01-06T23:47:01.141Z,77.57
2024-01-06T23:49:28.684Z,76.97
2024-01-06T23:51:56.084Z,76.76
2024-01-06T23:54:23.579Z,76.91
2024-01-06T23:56:50.861Z,76.80
2024-01-06T23:59:19.476Z,76.80
